Time;durP1;ratioP1;P1;durP2;ratioP2;P2;SDS_P1;SDS_P2;PMS_P1;PMS_P2;Temp;Humidity;BMP_temperature;BMP_pressure;BME280_temperature;BME280_humidity;BME280_pressure;Samples;Min_cycle;Max_cycle;Signal;HPM_P1;HPM_P2
2021/12/01 00:00:56;;;;;;;9.00;3.60;;;10.60;99.90;;;;;;4994160;28;20030;-82
2021/12/01 00:03:21;;;;;;;7.43;4.43;;;10.50;99.90;;;;;;4983762;28;20045;-82
2021/12/01 00:05:48;;;;;;;7.28;5.28;;;10.40;99.90;;;;;;4983922;28;20117;-82
2021/12/01 00:08:15;;;;;;;9.65;6.30;;;10.40;99.90;;;;;;4985342;28;20026;-88
2021/12/01 00:10:41;;;;;;;12.00;6.25;;;10.40;99.90;;;;;;4977295;28;20035;-85
2021/12/01 00:13:10;;;;;;;9.25;5.93;;;10.40;99.90;;;;;;4990791;28;20383;-83
2021/12/01 00:15:36;;;;;;;12.38;6.35;;;10.40;99.90;;;;;;4975724;28;20108;-86
2021/12/01 00:18:03;;;;;;;13.15;6.45;;;10.40;99.90;;;;;;4980831;28;20448;-85
2021/12/01 00:20:29;;;;;;;9.13;5.90;;;10.40;99.90;;;;;;5005823;28;20030;-81
2021/12/01 00:22:55;;;;;;;9.13;6.13;;;10.50;99.90;;;;;;4994900;28;20415;-80
2021/12/01 00:25:23;;;;;;;7.85;5.40;;;10.50;99.90;;;;;;4995951;28;20040;-83
2021/12/01 00:27:51;;;;;;;7.65;4.90;;;10.50;99.90;;;;;;4984477;28;20106;-79
2021/12/01 00:30:17;;;;;;;10.85;6.05;;;10.50;99.90;;;;;;4986627;28;20062;-81
2021/12/01 00:32:44;;;;;;;8.45;5.43;;;10.50;99.90;;;;;;4985372;28;20033;-79
2021/12/01 00:35:10;;;;;;;8.50;5.65;;;10.50;99.90;;;;;;4982709;28;20506;-84
2021/12/01 00:37:36;;;;;;;10.48;5.53;;;10.60;99.90;;;;;;4994586;28;20105;-82
2021/12/01 00:40:04;;;;;;;10.35;6.82;;;10.60;99.90;;;;;;4988104;28;20034;-83
2021/12/01 00:42:30;;;;;;;;;;;10.60;99.90;;;;;;4988678;28;20483;-83
2021/12/01 00:44:59;;;;;;;13.48;6.03;;;10.60;99.90;;;;;;4993311;28;19909;-80
2021/12/01 00:47:33;;;;;;;12.40;6.30;;;10.60;99.90;;;;;;4990106;28;20041;-80
2021/12/01 00:49:58;;;;;;;7.65;5.32;;;10.60;99.90;;;;;;4990887;28;20371;-81
2021/12/01 00:52:24;;;;;;;8.18;5.18;;;10.60;99.90;;;;;;4986282;28;20026;-82
2021/12/01 00:54:50;;;;;;;8.38;5.13;;;10.70;99.90;;;;;;4991252;28;20046;-83
2021/12/01 00:57:16;;;;;;;8.43;4.93;;;10.70;99.90;;;;;;4983701;28;20059;-84
2021/12/01 00:59:41;;;;;;;6.00;3.78;;;10.60;99.90;;;;;;4987804;28;20026;-79
2021/12/01 01:02:07;;;;;;;5.63;3.83;;;10.60;99.90;;;;;;4990589;28;20434;-81
2021/12/01 01:04:33;;;;;;;13.60;4.10;;;10.70;99.90;;;;;;4992591;28;20034;-80
2021/12/01 01:06:59;;;;;;;7.28;4.07;;;10.70;99.90;;;;;;4982667;28;20041;-83
2021/12/01 01:09:30;;;;;;;8.88;3.58;;;10.70;99.90;;;;;;4988756;28;20014;-80
2021/12/01 01:17:38;;;;;;;6.25;3.20;;;10.70;99.90;;;;;;4983537;28;20053;-83
2021/12/01 01:20:13;;;;;;;6.70;3.20;;;10.70;99.90;;;;;;4997411;28;20026;-84
2021/12/01 01:22:40;;;;;;;3.08;2.50;;;10.70;99.90;;;;;;4994838;28;20026;-84
2021/12/01 01:25:08;;;;;;;5.18;3.08;;;10.60;99.90;;;;;;4992047;28;20031;-82
2021/12/01 01:27:35;;;;;;;7.95;3.00;;;10.70;99.90;;;;;;4997004;28;20503;-83
2021/12/01 01:30:01;;;;;;;2.40;2.20;;;10.60;99.90;;;;;;4992764;28;20031;-86
2021/12/01 01:32:27;;;;;;;5.65;2.38;;;10.60;99.90;;;;;;4987737;28;20066;-83
2021/12/01 01:34:52;;;;;;;5.28;2.28;;;10.70;99.90;;;;;;4989002;28;20033;-81
2021/12/01 01:37:18;;;;;;;2.88;2.13;;;10.60;99.90;;;;;;4992926;28;20033;-82
2021/12/01 01:39:46;;;;;;;2.78;2.28;;;10.70;99.90;;;;;;4993133;28;20030;-81
2021/12/01 01:42:12;;;;;;;4.50;2.78;;;10.70;99.90;;;;;;4994242;28;20518;-84
2021/12/01 01:44:37;;;;;;;3.75;2.20;;;10.70;99.90;;;;;;4992067;28;20031;-83
2021/12/01 01:47:03;;;;;;;3.97;2.00;;;10.70;99.90;;;;;;4997072;28;20491;-83
2021/12/01 01:49:47;;;;;;;2.08;1.88;;;10.70;99.90;;;;;;4987069;28;20057;-82
2021/12/01 01:52:13;;;;;;;5.20;2.22;;;10.70;99.90;;;;;;4977787;28;20090;-83
2021/12/01 01:54:39;;;;;;;2.83;2.20;;;10.60;99.90;;;;;;4981225;28;20054;-83
2021/12/01 01:57:05;;;;;;;2.92;2.15;;;10.60;99.90;;;;;;4977320;28;20030;-83
2021/12/01 01:59:30;;;;;;;3.10;2.53;;;10.60;99.90;;;;;;4981984;28;20109;-84
2021/12/01 02:01:58;;;;;;;3.38;1.98;;;10.60;99.90;;;;;;4993230;28;20027;-82
2021/12/01 02:04:43;;;;;;;2.33;1.95;;;10.60;99.90;;;;;;4997012;28;20045;-85
2021/12/01 02:07:09;;;;;;;4.22;2.05;;;10.60;99.90;;;;;;4998242;28;20034;-83
2021/12/01 02:09:35;;;;;;;4.38;2.08;;;10.50;99.90;;;;;;4986154;28;20038;-82
2021/12/01 02:12:03;;;;;;;6.10;2.83;;;10.50;99.90;;;;;;4977561;28;20034;-80
2021/12/01 02:14:29;;;;;;;3.75;1.90;;;10.40;99.90;;;;;;4980910;28;20030;-83
2021/12/01 02:16:57;;;;;;;4.85;2.22;;;10.40;99.90;;;;;;4997388;28;20026;-84
2021/12/01 02:19:23;;;;;;;7.10;2.80;;;10.40;99.90;;;;;;4982982;28;20022;-82
2021/12/01 02:21:49;;;;;;;3.25;2.22;;;10.40;99.90;;;;;;4978581;28;20038;-84
2021/12/01 02:24:16;;;;;;;2.65;2.20;;;10.40;99.90;;;;;;4991085;28;20050;-84
2021/12/01 02:26:49;;;;;;;4.68;2.50;;;10.20;99.90;;;;;;4989162;28;20487;-83
2021/12/01 02:29:21;;;;;;;6.63;2.78;;;10.30;99.90;;;;;;4995402;28;20022;-83
2021/12/01 02:31:48;;;;;;;3.40;2.30;;;10.30;99.90;;;;;;4989399;28;20523;-80
2021/12/01 02:34:19;;;;;;;7.68;2.80;;;10.20;99.90;;;;;;4988221;28;20022;-80
2021/12/01 02:36:55;;;;;;;4.40;2.10;;;10.10;99.90;;;;;;4989699;28;20030;-81
2021/12/01 02:39:21;;;;;;;3.47;2.20;;;10.20;99.90;;;;;;4994900;28;20026;-83
2021/12/01 02:41:53;;;;;;;3.45;2.03;;;10.20;99.90;;;;;;4976582;28;20085;-81
2021/12/01 02:44:18;;;;;;;2.22;2.00;;;10.20;99.90;;;;;;4977732;28;20027;-82
2021/12/01 02:46:45;;;;;;;3.70;1.95;;;10.20;99.90;;;;;;4977536;28;20494;-82
2021/12/01 02:49:11;;;;;;;4.43;1.70;;;10.10;99.90;;;;;;4991526;28;20142;-81
2021/12/01 02:51:37;;;;;;;2.30;1.70;;;10.10;99.90;;;;;;4983866;28;20166;-82
2021/12/01 02:54:05;;;;;;;6.47;1.65;;;10.10;99.90;;;;;;4986196;28;20492;-80
2021/12/01 02:56:33;;;;;;;1.63;1.53;;;10.00;99.90;;;;;;4993467;28;20131;-81
2021/12/01 02:59:01;;;;;;;4.00;2.33;;;10.00;99.90;;;;;;4994448;28;20049;-81
2021/12/01 03:01:28;;;;;;;3.75;1.67;;;10.00;99.90;;;;;;4984603;28;20023;-80
2021/12/01 03:03:55;;;;;;;3.63;1.80;;;10.00;99.90;;;;;;4991302;28;20023;-80
2021/12/01 03:06:25;;;;;;;4.43;2.22;;;10.00;99.90;;;;;;4995759;28;20118;-81
2021/12/01 03:08:51;;;;;;;2.70;2.03;;;10.00;99.90;;;;;;4993735;28;20026;-80
2021/12/01 03:11:17;;;;;;;1.98;1.85;;;10.00;99.90;;;;;;4988536;28;20101;-82
2021/12/01 03:13:43;;;;;;;3.33;1.90;;;10.00;99.90;;;;;;4979777;28;20514;-82
2021/12/01 03:16:09;;;;;;;3.90;1.90;;;10.00;99.90;;;;;;4981955;28;20018;-82
2021/12/01 03:18:35;;;;;;;3.47;1.92;;;10.00;99.90;;;;;;5001684;28;20026;-82
2021/12/01 03:21:01;;;;;;;3.45;2.35;;;10.00;99.90;;;;;;4987605;28;20023;-83
2021/12/01 03:23:27;;;;;;;5.55;3.28;;;10.00;99.90;;;;;;4980663;28;20479;-83
2021/12/01 03:25:53;;;;;;;7.57;3.35;;;10.00;99.90;;;;;;5004640;28;20034;-84
2021/12/01 03:28:19;;;;;;;7.00;3.25;;;9.90;99.90;;;;;;4975854;28;20056;-83
2021/12/01 03:30:45;;;;;;;6.85;3.17;;;9.90;99.90;;;;;;4989191;28;20055;-83
2021/12/01 03:33:15;;;;;;;3.08;2.78;;;9.90;99.90;;;;;;4994356;28;20396;-84
2021/12/01 03:35:43;;;;;;;4.75;2.92;;;9.90;99.90;;;;;;4978844;28;20026;-84
2021/12/01 03:38:09;;;;;;;3.85;3.03;;;9.90;99.90;;;;;;4979965;28;20070;-84
2021/12/01 03:40:34;;;;;;;7.40;3.15;;;9.90;99.90;;;;;;4991132;28;20527;-82
2021/12/01 03:43:01;;;;;;;5.50;3.00;;;9.90;99.90;;;;;;4994040;28;20031;-81
2021/12/01 03:45:27;;;;;;;5.03;3.50;;;9.90;99.90;;;;;;4991971;28;20105;-83
2021/12/01 03:47:53;;;;;;;6.40;3.97;;;9.80;99.90;;;;;;4975952;28;20053;-84
2021/12/01 03:50:18;;;;;;;9.45;3.45;;;9.90;99.90;;;;;;5009781;28;20023;-83
2021/12/01 03:52:45;;;;;;;6.53;3.85;;;9.90;99.90;;;;;;4980863;28;20081;-82
2021/12/01 03:55:11;;;;;;;5.25;3.63;;;9.90;99.90;;;;;;4989500;28;20030;-83
2021/12/01 03:57:37;;;;;;;4.32;3.03;;;9.80;99.90;;;;;;4995208;28;20026;-84
2021/12/01 04:00:07;;;;;;;4.72;2.90;;;9.80;99.90;;;;;;4984329;28;20447;-85
2021/12/01 04:02:32;;;;;;;5.60;2.42;;;9.80;99.90;;;;;;4988558;28;20025;-85
2021/12/01 04:04:58;;;;;;;3.08;2.53;;;9.80;99.90;;;;;;4991951;28;20391;-83
2021/12/01 04:07:24;;;;;;;6.43;3.15;;;9.80;99.90;;;;;;4993844;28;20484;-83
2021/12/01 04:09:51;;;;;;;5.88;2.78;;;9.80;99.90;;;;;;4992582;28;20048;-80
2021/12/01 04:12:17;;;;;;;4.18;2.58;;;9.80;99.90;;;;;;4991949;28;20149;-83
2021/12/01 04:14:43;;;;;;;5.68;2.50;;;9.80;99.90;;;;;;4990724;28;20403;-81
2021/12/01 04:17:08;;;;;;;4.78;2.88;;;9.70;99.90;;;;;;4992108;28;20076;-81
2021/12/01 04:19:34;;;;;;;3.45;2.80;;;9.70;99.90;;;;;;4993864;28;20041;-81
2021/12/01 04:22:00;;;;;;;4.22;2.60;;;9.70;99.90;;;;;;4988270;28;20038;-82
2021/12/01 04:24:26;;;;;;;3.67;2.67;;;9.70;99.90;;;;;;4989026;28;20030;-79
2021/12/01 04:26:52;;;;;;;2.63;2.30;;;9.60;99.90;;;;;;4988766;28;20030;-82
2021/12/01 04:29:18;;;;;;;2.65;2.22;;;9.60;99.90;;;;;;4983127;28;20475;-79
2021/12/01 04:31:44;;;;;;;2.53;2.30;;;9.60;99.90;;;;;;4988086;28;20065;-83
2021/12/01 04:34:10;;;;;;;3.22;2.42;;;9.50;99.90;;;;;;4993414;28;20022;-79
2021/12/01 04:36:39;;;;;;;3.25;2.50;;;9.40;99.90;;;;;;4998305;28;20109;-82
2021/12/01 04:39:09;;;;;;;3.38;2.70;;;9.40;99.90;;;;;;4998372;28;20073;-83
2021/12/01 04:41:55;;;;;;;4.15;2.53;;;9.40;99.90;;;;;;4986130;28;20480;-82
2021/12/01 04:44:23;;;;;;;2.58;2.22;;;9.30;99.90;;;;;;4995590;28;20479;-83
2021/12/01 04:46:52;;;;;;;3.17;2.88;;;9.30;99.90;;;;;;4991353;28;20078;-83
2021/12/01 04:49:20;;;;;;;3.92;2.97;;;9.30;99.90;;;;;;4990010;28;20501;-84
2021/12/01 04:51:51;;;;;;;4.60;3.28;;;9.30;99.90;;;;;;4988871;28;20328;-84
2021/12/01 04:54:17;;;;;;;3.92;2.95;;;9.30;99.90;;;;;;4985882;28;20090;-83
2021/12/01 04:56:44;;;;;;;4.05;3.35;;;9.30;99.90;;;;;;4986725;28;20458;-85
2021/12/01 04:59:10;;;;;;;5.32;3.22;;;9.30;99.90;;;;;;4999778;28;20030;-85
2021/12/01 05:01:37;;;;;;;3.80;3.25;;;9.30;99.90;;;;;;4988282;28;20038;-85
2021/12/01 05:04:04;;;;;;;4.88;3.80;;;9.20;99.90;;;;;;4993761;28;20088;-80
2021/12/01 05:06:29;;;;;;;4.53;3.70;;;9.20;99.90;;;;;;4988612;28;20113;-82
2021/12/01 05:08:55;;;;;;;4.47;3.50;;;9.20;99.90;;;;;;4996283;28;20112;-81
2021/12/01 05:11:21;;;;;;;4.38;3.50;;;9.20;99.90;;;;;;4997317;28;20093;-84
2021/12/01 05:13:47;;;;;;;5.07;3.22;;;9.20;99.90;;;;;;4996415;28;20038;-82
2021/12/01 05:16:12;;;;;;;5.38;3.80;;;9.20;99.90;;;;;;5000377;28;20121;-83
2021/12/01 05:18:38;;;;;;;4.05;3.65;;;9.10;99.90;;;;;;4997768;28;20034;-81
2021/12/01 05:21:04;;;;;;;3.97;3.58;;;9.20;99.90;;;;;;4992062;28;20058;-82
2021/12/01 05:23:30;;;;;;;4.60;3.20;;;9.20;99.90;;;;;;5006268;28;20062;-82
2021/12/01 05:25:56;;;;;;;5.32;3.80;;;9.10;99.90;;;;;;4990816;28;20105;-82
2021/12/01 05:28:21;;;;;;;5.50;3.67;;;9.10;99.90;;;;;;5007796;28;20427;-80
2021/12/01 05:30:47;;;;;;;5.50;3.65;;;9.10;99.90;;;;;;4980381;28;20033;-84
2021/12/01 05:33:14;;;;;;;12.15;4.00;;;9.10;99.90;;;;;;4986412;28;20502;-83
2021/12/01 05:35:42;;;;;;;4.45;3.63;;;9.20;99.90;;;;;;4987404;28;20026;-82
2021/12/01 05:38:08;;;;;;;4.22;3.70;;;9.20;99.90;;;;;;4989654;28;20078;-83
2021/12/01 05:40:35;;;;;;;5.95;4.07;;;9.20;99.90;;;;;;4981891;28;20423;-83
2021/12/01 05:43:00;;;;;;;5.95;4.35;;;9.20;99.90;;;;;;5011470;28;20452;-83
2021/12/01 05:45:26;;;;;;;6.68;4.10;;;9.10;99.90;;;;;;4991376;28;20034;-83
2021/12/01 05:47:52;;;;;;;8.60;4.68;;;9.10;99.90;;;;;;4986993;28;20038;-83
2021/12/01 05:50:17;;;;;;;8.23;5.10;;;9.10;99.90;;;;;;4992672;28;20501;-85
2021/12/01 05:52:43;;;;;;;7.30;4.15;;;9.10;99.90;;;;;;4992871;28;20038;-84
2021/12/01 05:55:09;;;;;;;6.05;4.07;;;9.20;99.90;;;;;;5010089;28;20042;-84
2021/12/01 05:57:35;;;;;;;6.45;4.18;;;9.20;99.90;;;;;;5001476;28;20027;-83
2021/12/01 06:00:02;;;;;;;6.20;4.63;;;9.20;99.90;;;;;;5002096;28;20054;-82
2021/12/01 06:02:27;;;;;;;5.65;4.20;;;9.20;99.90;;;;;;5013044;28;20054;-83
2021/12/01 06:04:53;;;;;;;7.22;3.83;;;9.20;99.90;;;;;;5006497;28;20067;-83
2021/12/01 06:07:19;;;;;;;6.75;4.10;;;9.20;99.90;;;;;;5020143;28;20025;-81
2021/12/01 06:09:44;;;;;;;10.43;4.95;;;9.20;99.90;;;;;;5013909;28;20046;-79
2021/12/01 06:12:13;;;;;;;6.85;4.70;;;9.20;99.90;;;;;;4999532;28;20562;-84
2021/12/01 06:14:44;;;;;;;5.95;3.58;;;9.20;99.90;;;;;;5006060;28;20031;-82
2021/12/01 06:17:12;;;;;;;6.22;4.18;;;9.20;99.90;;;;;;5001276;28;20055;-82
2021/12/01 06:19:38;;;;;;;7.93;3.97;;;9.20;99.90;;;;;;5014236;28;20030;-81
2021/12/01 06:22:05;;;;;;;6.43;3.67;;;9.20;99.90;;;;;;5009898;28;20054;-82
2021/12/01 06:24:31;;;;;;;7.68;4.20;;;9.30;99.90;;;;;;5017503;28;20007;-83
2021/12/01 06:26:56;;;;;;;6.15;3.35;;;9.30;99.90;;;;;;5016360;28;20026;-83
2021/12/01 06:29:22;;;;;;;10.30;3.70;;;9.20;99.90;;;;;;5015220;28;20035;-81
2021/12/01 06:31:48;;;;;;;5.60;3.50;;;9.30;99.90;;;;;;5005641;28;20049;-81
2021/12/01 06:34:13;;;;;;;7.63;3.85;;;9.30;99.90;;;;;;5019139;28;20041;-82
2021/12/01 06:36:39;;;;;;;5.43;3.97;;;9.30;99.90;;;;;;5015260;28;20026;-81
2021/12/01 06:39:09;;;;;;;8.13;3.72;;;9.30;99.90;;;;;;5013042;28;20014;-82
2021/12/01 06:41:35;;;;;;;13.05;4.53;;;9.30;99.90;;;;;;5009651;28;20034;-81
2021/12/01 06:44:00;;;;;;;6.55;3.85;;;9.30;99.90;;;;;;4997344;28;20027;-80
2021/12/01 06:46:28;;;;;;;6.15;3.63;;;9.30;99.90;;;;;;5007904;28;20035;-82
2021/12/01 06:48:54;;;;;;;5.65;3.50;;;9.30;99.90;;;;;;5008964;28;20094;-81
2021/12/01 06:51:20;;;;;;;8.00;3.63;;;9.30;99.90;;;;;;5014981;28;20052;-80
2021/12/01 06:53:45;;;;;;;7.53;2.97;;;9.30;99.90;;;;;;4986877;28;20027;-80
2021/12/01 06:56:11;;;;;;;6.57;3.28;;;9.30;99.90;;;;;;4984417;28;20061;-82
2021/12/01 06:58:37;;;;;;;7.28;3.85;;;9.30;99.90;;;;;;5014327;28;20038;-81
2021/12/01 07:01:06;;;;;;;5.45;3.78;;;9.30;99.90;;;;;;4997667;28;20018;-83
2021/12/01 07:03:32;;;;;;;5.72;2.72;;;9.30;99.90;;;;;;4997292;28;20049;-80
2021/12/01 07:05:59;;;;;;;6.43;3.20;;;9.20;99.90;;;;;;4997657;28;20028;-81
2021/12/01 07:08:25;;;;;;;7.70;2.92;;;9.30;99.90;;;;;;4996524;28;20499;-80
2021/12/01 07:10:51;;;;;;;3.95;3.10;;;9.30;99.90;;;;;;4995456;28;20079;-82
2021/12/01 07:13:16;;;;;;;5.38;2.20;;;9.30;99.90;;;;;;4987611;28;20031;-82
2021/12/01 07:15:42;;;;;;;5.00;2.60;;;9.30;99.90;;;;;;4985977;28;20018;-80
2021/12/01 07:18:08;;;;;;;4.68;2.38;;;9.40;99.90;;;;;;4990100;28;20023;-82
2021/12/01 07:20:34;;;;;;;2.65;2.15;;;9.40;99.90;;;;;;4992842;28;20029;-81
2021/12/01 07:23:02;;;;;;;1.63;1.52;;;9.40;99.90;;;;;;4994585;28;20509;-80
2021/12/01 07:25:28;;;;;;;5.32;2.20;;;9.40;99.90;;;;;;4995423;28;20482;-82
2021/12/01 07:27:53;;;;;;;2.47;2.15;;;9.40;99.90;;;;;;4994723;28;20069;-81
2021/12/01 07:30:19;;;;;;;1.90;1.73;;;9.40;99.90;;;;;;4982384;28;20121;-82
2021/12/01 07:32:45;;;;;;;2.25;2.08;;;9.40;99.90;;;;;;4995805;28;20102;-83
2021/12/01 07:35:10;;;;;;;3.38;1.85;;;9.40;99.90;;;;;;5009118;28;20034;-82
2021/12/01 07:37:36;;;;;;;1.98;1.77;;;9.50;99.90;;;;;;4991477;28;20391;-79
2021/12/01 07:40:04;;;;;;;2.92;1.90;;;9.50;99.90;;;;;;4980962;28;20455;-79
2021/12/01 07:42:30;;;;;;;2.20;2.00;;;9.50;99.90;;;;;;4976189;28;20113;-80
2021/12/01 07:44:55;;;;;;;8.27;2.85;;;9.50;99.90;;;;;;4976568;28;20059;-81
2021/12/01 07:47:21;;;;;;;2.47;2.28;;;9.60;99.90;;;;;;4987015;28;20056;-80
2021/12/01 07:49:48;;;;;;;4.28;2.42;;;9.60;99.90;;;;;;4993573;28;20179;-81
2021/12/01 07:52:14;;;;;;;5.63;2.45;;;9.60;99.90;;;;;;4990096;28;20476;-80
2021/12/01 07:54:39;;;;;;;9.25;3.08;;;9.70;99.90;;;;;;5004543;28;20077;-80
2021/12/01 07:57:05;;;;;;;5.25;3.25;;;9.70;99.90;;;;;;4992939;28;20105;-86
2021/12/01 07:59:31;;;;;;;3.70;2.22;;;9.70;99.90;;;;;;4995246;28;20026;-85
2021/12/01 08:01:57;;;;;;;8.02;2.75;;;9.70;99.90;;;;;;4976481;28;20038;-84
2021/12/01 08:04:23;;;;;;;4.22;3.30;;;9.70;99.90;;;;;;4977283;28;20512;-81
2021/12/01 08:06:48;;;;;;;4.32;2.60;;;9.70;99.90;;;;;;4975849;28;20027;-84
2021/12/01 08:09:14;;;;;;;5.13;2.75;;;9.70;99.90;;;;;;4991618;28;20042;-80
2021/12/01 08:11:40;;;;;;;3.47;2.75;;;9.70;99.90;;;;;;4994204;28;20503;-82
2021/12/01 08:14:06;;;;;;;4.30;2.38;;;9.70;99.90;;;;;;4993755;28;20394;-84
2021/12/01 08:16:36;;;;;;;3.38;1.65;;;9.70;99.90;;;;;;4988443;28;20019;-83
2021/12/01 08:19:02;;;;;;;7.05;1.35;;;9.70;99.90;;;;;;4975616;28;20027;-81
2021/12/01 08:21:28;;;;;;;4.70;1.42;;;9.60;99.90;;;;;;4974139;28;20056;-82
2021/12/01 08:23:54;;;;;;;8.93;1.30;;;9.50;99.90;;;;;;4974518;28;20023;-82
2021/12/01 08:26:21;;;;;;;10.07;1.52;;;9.50;99.90;;;;;;4973761;28;20514;-81
2021/12/01 08:28:47;;;;;;;7.28;1.15;;;9.40;99.90;;;;;;5005506;28;20399;-81
2021/12/01 08:31:15;;;;;;;2.05;0.93;;;9.40;99.90;;;;;;4974807;28;20078;-82
2021/12/01 08:33:42;;;;;;;11.07;1.13;;;9.30;99.90;;;;;;4975816;28;20480;-81
2021/12/01 08:36:09;;;;;;;9.53;0.87;;;9.20;99.90;;;;;;4976085;28;20062;-82
2021/12/01 08:38:36;;;;;;;7.72;1.02;;;9.10;99.90;;;;;;4977873;28;20027;-82
2021/12/01 08:41:02;;;;;;;6.00;1.20;;;9.10;99.90;;;;;;4987141;28;20058;-80
2021/12/01 08:43:28;;;;;;;9.38;1.02;;;9.10;99.90;;;;;;4994618;28;20049;-82
2021/12/01 08:45:54;;;;;;;4.05;1.23;;;9.10;99.90;;;;;;4990082;28;20106;-83
2021/12/01 08:48:20;;;;;;;3.97;1.02;;;9.10;99.90;;;;;;4982671;28;20025;-82
2021/12/01 08:50:45;;;;;;;7.45;1.95;;;9.20;99.90;;;;;;4981096;28;20072;-82
2021/12/01 08:53:11;;;;;;;6.53;1.52;;;9.10;99.90;;;;;;4988141;28;20042;-82
2021/12/01 08:55:40;;;;;;;6.15;1.40;;;9.20;99.90;;;;;;4994507;28;20044;-83
2021/12/01 08:58:09;;;;;;;9.40;0.90;;;9.20;99.90;;;;;;4991985;28;20077;-81
2021/12/01 09:00:37;;;;;;;7.47;1.40;;;9.30;99.90;;;;;;4983540;28;20039;-81
2021/12/01 09:03:04;;;;;;;;;;;9.30;99.90;;;;;;4989669;28;20061;-82
2021/12/01 09:05:30;;;;;;;8.93;1.20;;;9.30;99.90;;;;;;5006250;28;19953;-80
2021/12/01 09:07:56;;;;;;;5.88;0.73;;;9.40;99.90;;;;;;4977153;28;20062;-80
2021/12/01 09:10:22;;;;;;;10.38;3.70;;;9.40;99.90;;;;;;4982757;28;20502;-81
2021/12/01 09:12:47;;;;;;;3.22;1.00;;;9.40;99.90;;;;;;4985066;28;20038;-84
2021/12/01 09:15:14;;;;;;;5.38;1.00;;;9.40;99.90;;;;;;4975398;28;20031;-82
2021/12/01 09:17:40;;;;;;;9.38;0.63;;;9.50;99.90;;;;;;4974993;28;20081;-81
2021/12/01 09:20:06;;;;;;;4.53;0.88;;;9.70;99.90;;;;;;4989864;28;20047;-80
2021/12/01 09:22:32;;;;;;;3.20;0.55;;;9.60;99.90;;;;;;4988577;28;20022;-80
2021/12/01 09:24:58;;;;;;;4.38;0.88;;;9.60;99.90;;;;;;4993704;28;20084;-80
2021/12/01 09:27:23;;;;;;;9.52;0.60;;;9.60;99.90;;;;;;4996017;28;20666;-79
2021/12/01 09:29:49;;;;;;;6.90;1.02;;;9.50;99.90;;;;;;4997112;28;20023;-80
2021/12/01 09:32:15;;;;;;;5.25;0.50;;;9.60;99.90;;;;;;4990823;28;20058;-81
2021/12/01 09:34:41;;;;;;;1.25;0.65;;;9.60;99.90;;;;;;4980285;28;20027;-81
2021/12/01 09:37:08;;;;;;;5.78;0.80;;;9.60;99.90;;;;;;4994544;28;20455;-82
2021/12/01 09:39:36;;;;;;;6.45;0.60;;;9.60;99.90;;;;;;4989439;28;20101;-85
2021/12/01 09:42:02;;;;;;;6.28;0.80;;;9.60;99.90;;;;;;4993659;28;20510;-80
2021/12/01 09:44:30;;;;;;;10.15;1.13;;;9.40;99.90;;;;;;4994027;28;20450;-81
2021/12/01 09:46:56;;;;;;;6.30;0.80;;;9.30;99.90;;;;;;4993191;28;20085;-80
2021/12/01 09:49:21;;;;;;;4.45;0.50;;;9.30;99.90;;;;;;4978267;28;20571;-80
2021/12/01 09:51:47;;;;;;;10.02;1.30;;;9.10;99.90;;;;;;4989534;28;20038;-81
2021/12/01 09:54:13;;;;;;;5.65;0.90;;;9.00;99.90;;;;;;4977854;28;20026;-81
2021/12/01 09:56:39;;;;;;;7.10;0.95;;;9.10;99.90;;;;;;4982240;28;20085;-84
2021/12/01 09:59:05;;;;;;;9.60;0.90;;;9.00;99.90;;;;;;4994668;28;20511;-82
2021/12/01 10:01:31;;;;;;;3.10;0.93;;;8.90;99.90;;;;;;4995746;28;20077;-83
2021/12/01 10:03:58;;;;;;;9.38;1.35;;;8.90;99.90;;;;;;4997721;28;20029;-83
2021/12/01 10:06:25;;;;;;;5.70;0.75;;;8.90;99.90;;;;;;4986486;28;20030;-82
2021/12/01 10:08:51;;;;;;;3.92;1.00;;;9.00;99.90;;;;;;4993708;28;20022;-81
2021/12/01 10:11:30;;;;;;;1.60;0.60;;;9.00;99.90;;;;;;4991916;28;20402;-82
2021/12/01 10:14:17;;;;;;;5.53;1.08;;;9.00;99.90;;;;;;4978522;28;20038;-82
2021/12/01 10:16:43;;;;;;;9.18;1.10;;;8.90;99.90;;;;;;4982837;28;20022;-82
2021/12/01 10:19:12;;;;;;;4.63;0.93;;;8.90;99.90;;;;;;4986545;28;20538;-81
2021/12/01 10:21:49;;;;;;;8.90;1.65;;;8.90;99.90;;;;;;4983426;28;20050;-80
2021/12/01 10:24:26;;;;;;;11.82;0.80;;;8.90;99.90;;;;;;4987782;28;20352;-82
2021/12/01 10:26:54;;;;;;;7.38;1.10;;;9.00;99.90;;;;;;4991817;28;20052;-80
2021/12/01 10:29:21;;;;;;;8.82;1.42;;;9.00;99.90;;;;;;4985413;28;20383;-80
2021/12/01 10:31:54;;;;;;;5.47;0.95;;;9.00;99.90;;;;;;4990466;28;20085;-81
2021/12/01 10:34:31;;;;;;;14.02;1.23;;;9.10;99.90;;;;;;4979595;28;20385;-82
2021/12/01 10:37:23;;;;;;;3.88;1.10;;;9.20;99.90;;;;;;4976014;28;20051;-82
2021/12/01 10:40:12;;;;;;;5.43;1.05;;;9.20;99.90;;;;;;4992640;28;20034;-82
2021/12/01 10:43:02;;;;;;;7.22;1.90;;;9.30;99.90;;;;;;4995764;28;20117;-80
2021/12/01 10:45:31;;;;;;;3.92;1.05;;;9.30;99.90;;;;;;4990200;28;20027;-81
2021/12/01 10:47:58;;;;;;;9.93;1.27;;;9.30;99.90;;;;;;4983739;28;20500;-80
2021/12/01 10:50:27;;;;;;;8.93;1.02;;;9.40;99.90;;;;;;4995360;28;20550;-81
2021/12/01 10:53:05;;;;;;;3.92;1.10;;;9.40;99.90;;;;;;4980582;28;20353;-78
2021/12/01 10:55:31;;;;;;;3.80;1.13;;;9.50;99.90;;;;;;4982932;28;20074;-80
2021/12/01 10:58:02;;;;;;;6.88;1.45;;;9.60;99.90;;;;;;4984576;28;20517;-78
2021/12/01 11:00:31;;;;;;;7.13;1.25;;;9.60;99.90;;;;;;4994488;28;20054;-81
2021/12/01 11:03:12;;;;;;;6.03;2.90;;;9.60;99.90;;;;;;4988406;28;20035;-80
2021/12/01 11:05:44;;;;;;;4.70;1.35;;;9.70;99.90;;;;;;4995213;28;20042;-80
2021/12/01 11:08:17;;;;;;;12.95;1.75;;;9.70;99.90;;;;;;4986626;28;20026;-79
2021/12/01 11:10:48;;;;;;;13.00;1.67;;;9.80;99.90;;;;;;4994919;28;20030;-80
2021/12/01 11:13:16;;;;;;;6.30;0.90;;;9.70;99.90;;;;;;4994469;28;20061;-79
2021/12/01 11:15:46;;;;;;;10.43;1.05;;;9.60;99.90;;;;;;4992153;28;20022;-80
2021/12/01 11:18:21;;;;;;;9.85;1.27;;;9.60;99.90;;;;;;4992862;28;20026;-79
2021/12/01 11:20:52;;;;;;;13.27;3.03;;;9.60;99.90;;;;;;4975059;28;20031;-80
2021/12/01 11:23:30;;;;;;;7.03;2.03;;;9.70;99.90;;;;;;4988334;28;20034;-78
2021/12/01 11:26:05;;;;;;;8.50;1.17;;;9.60;99.90;;;;;;4993344;28;20503;-79
2021/12/01 11:28:35;;;;;;;11.55;1.77;;;9.70;99.90;;;;;;4986323;28;20035;-77
2021/12/01 11:31:03;;;;;;;10.35;1.70;;;9.70;99.90;;;;;;4974047;28;20035;-80
2021/12/01 11:33:30;;;;;;;4.90;0.82;;;9.80;99.90;;;;;;4974244;28;20476;-80
2021/12/01 11:36:06;;;;;;;6.28;1.15;;;9.70;99.90;;;;;;4990359;28;20463;-79
2021/12/01 11:38:32;;;;;;;11.15;1.08;;;9.50;99.90;;;;;;4974412;28;20089;-78
2021/12/01 11:40:59;;;;;;;5.80;1.08;;;9.50;99.90;;;;;;4979037;28;20031;-78
2021/12/01 11:43:28;;;;;;;6.70;0.65;;;9.60;99.90;;;;;;4974493;28;20037;-78
2021/12/01 11:45:54;;;;;;;3.80;1.00;;;9.60;99.90;;;;;;4976289;28;20027;-81
2021/12/01 11:48:27;;;;;;;7.20;1.23;;;9.60;99.90;;;;;;4974597;28;20042;-79
2021/12/01 11:51:11;;;;;;;7.68;1.95;;;9.60;99.90;;;;;;4992706;28;20499;-79
2021/12/01 11:53:39;;;;;;;6.97;1.90;;;9.70;99.90;;;;;;4993517;28;20052;-80
2021/12/01 11:56:12;;;;;;;10.35;1.00;;;9.70;99.90;;;;;;4994124;28;20098;-81
2021/12/01 11:58:41;;;;;;;8.07;2.90;;;9.70;99.90;;;;;;4992724;28;20026;-78
2021/12/01 12:01:29;;;;;;;8.98;1.38;;;9.70;99.90;;;;;;4977831;28;20619;-80
2021/12/01 12:04:01;;;;;;;3.78;0.82;;;9.70;99.90;;;;;;4975860;28;20128;-82
2021/12/01 12:06:29;;;;;;;7.53;0.88;;;9.70;99.90;;;;;;4988611;28;20152;-79
2021/12/01 12:08:55;;;;;;;7.82;1.15;;;9.60;99.90;;;;;;4984132;28;20037;-81
2021/12/01 12:11:52;;;;;;;8.68;1.20;;;9.60;99.90;;;;;;4984572;28;20034;-80
2021/12/01 12:14:31;;;;;;;17.52;2.83;;;9.60;99.90;;;;;;4978957;28;20411;-80
2021/12/01 12:17:12;;;;;;;6.78;1.23;;;9.60;99.90;;;;;;4987318;28;20041;-81
2021/12/01 12:19:46;;;;;;;3.55;1.00;;;9.70;99.90;;;;;;4992703;28;20054;-81
2021/12/01 12:22:27;;;;;;;4.55;0.80;;;9.60;99.90;;;;;;4990269;28;20045;-82
2021/12/01 12:24:56;;;;;;;19.73;1.75;;;9.70;99.90;;;;;;4984375;28;20064;-81
2021/12/01 12:27:40;;;;;;;9.68;1.05;;;9.60;99.90;;;;;;4985620;28;20030;-84
2021/12/01 12:30:27;;;;;;;7.45;1.05;;;9.60;99.90;;;;;;4993570;28;20042;-81
2021/12/01 12:33:32;;;;;;;2.47;0.68;;;9.70;99.90;;;;;;4992968;28;20034;-80
2021/12/01 12:36:05;;;;;;;9.18;1.88;;;9.70;99.90;;;;;;4993391;28;20026;-81
2021/12/01 12:38:31;;;;;;;10.23;1.20;;;9.70;99.90;;;;;;4992499;28;20062;-80
2021/12/01 12:41:14;;;;;;;4.15;0.80;;;9.70;99.90;;;;;;4994184;28;20042;-80
2021/12/01 12:43:42;;;;;;;7.50;1.10;;;9.60;99.90;;;;;;4994893;28;20104;-78
2021/12/01 12:46:19;;;;;;;17.05;2.13;;;9.60;99.90;;;;;;4993760;28;20027;-83
2021/12/01 12:48:51;;;;;;;6.18;1.02;;;9.60;99.90;;;;;;4991692;28;20122;-82
2021/12/01 12:51:29;;;;;;;8.55;1.35;;;9.50;99.90;;;;;;4994746;28;20027;-81
2021/12/01 12:54:06;;;;;;;;;;;9.50;99.90;;;;;;4989178;28;20030;-79
2021/12/01 12:56:52;;;;;;;6.28;1.38;;;9.40;99.90;;;;;;4990203;28;20363;-83
2021/12/01 12:59:26;;;;;;;9.07;1.05;;;9.40;99.90;;;;;;4985243;28;20076;-83
2021/12/01 13:02:15;;;;;;;4.45;0.60;;;9.50;99.90;;;;;;4998323;28;20030;-82
2021/12/01 13:05:02;;;;;;;4.95;0.73;;;9.50;99.90;;;;;;4998435;28;20064;-80
2021/12/01 13:07:37;;;;;;;5.97;0.73;;;9.50;99.90;;;;;;4997061;28;20076;-84